createdAt,value
2023-03-28T00:01:01.082Z,19.71
2023-03-28T00:02:04.403Z,18.00
2023-03-28T00:03:07.921Z,11.83
2023-03-28T00:04:11.560Z,7.86
2023-03-28T00:05:15.176Z,12.50
2023-03-28T00:06:18.670Z,10.71
2023-03-28T00:07:22.019Z,7.71
2023-03-28T00:08:24.968Z,6.00
2023-03-28T00:09:28.107Z,10.33
2023-03-28T00:10:31.330Z,18.33
2023-03-28T00:11:34.484Z,20.50
2023-03-28T00:12:37.758Z,29.00
2023-03-28T00:13:40.872Z,22.71
2023-03-28T00:14:43.941Z,8.14
2023-03-28T00:15:47.334Z,14.00
2023-03-28T00:16:50.597Z,21.29
2023-03-28T00:17:53.846Z,22.86
2023-03-28T00:18:59.817Z,20.12
2023-03-28T00:20:02.863Z,23.62
2023-03-28T00:21:05.987Z,27.14
2023-03-28T00:22:09.161Z,17.83
2023-03-28T00:23:12.465Z,21.50
2023-03-28T00:24:15.627Z,30.57
2023-03-28T00:25:18.961Z,42.57
2023-03-28T00:26:22.605Z,41.29
2023-03-28T00:27:25.988Z,24.00
2023-03-28T00:28:29.275Z,28.86
2023-03-28T00:29:32.456Z,28.14
2023-03-28T00:30:35.741Z,12.14
2023-03-28T00:31:39.201Z,7.00
2023-03-28T00:32:42.828Z,2.71
2023-03-28T00:33:46.010Z,9.86
2023-03-28T00:34:49.493Z,25.00
2023-03-28T00:35:52.681Z,20.29
2023-03-28T00:36:56.062Z,4.86
2023-03-28T00:37:59.483Z,4.00
2023-03-28T00:39:02.839Z,4.00
2023-03-28T00:40:06.323Z,3.57
2023-03-28T00:41:09.809Z,7.43
2023-03-28T00:42:12.993Z,18.71
2023-03-28T00:43:16.176Z,16.43
2023-03-28T00:44:19.374Z,7.86
2023-03-28T00:45:22.937Z,9.29
2023-03-28T00:46:26.153Z,4.14
2023-03-28T00:47:29.489Z,4.43
2023-03-28T00:48:32.904Z,4.14
2023-03-28T00:49:36.198Z,6.00
2023-03-28T00:50:39.472Z,9.00
2023-03-28T00:51:42.761Z,10.57
2023-03-28T00:52:46.244Z,9.00
2023-03-28T00:53:49.734Z,13.14
2023-03-28T00:54:53.122Z,15.71
2023-03-28T00:55:56.656Z,18.57
2023-03-28T00:57:00.258Z,11.29
2023-03-28T00:58:03.750Z,16.00
2023-03-28T00:59:06.978Z,16.00
2023-03-28T01:00:10.466Z,9.86
2023-03-28T01:01:14.092Z,3.29
2023-03-28T01:02:17.377Z,2.62
2023-03-28T01:03:20.726Z,3.29
2023-03-28T01:04:23.904Z,6.43
2023-03-28T01:05:27.414Z,5.43
2023-03-28T01:06:31.018Z,3.71
2023-03-28T01:07:34.037Z,3.71
2023-03-28T01:08:37.129Z,3.00
2023-03-28T01:09:40.322Z,3.14
2023-03-28T01:10:43.502Z,2.86
2023-03-28T01:11:47.053Z,3.57
2023-03-28T01:12:50.486Z,3.71
2023-03-28T01:13:53.673Z,3.57
2023-03-28T01:14:57.262Z,3.14
2023-03-28T01:16:00.734Z,3.00
2023-03-28T01:19:22.781Z,4.50
2023-03-28T01:20:26.275Z,6.71
2023-03-28T01:21:29.560Z,4.00
2023-03-28T01:22:32.735Z,2.57
2023-03-28T01:23:39.199Z,1.00
2023-03-28T01:24:42.374Z,2.00
2023-03-28T01:25:45.558Z,2.33
2023-03-28T01:26:48.842Z,3.00
2023-03-28T01:27:52.166Z,3.14
2023-03-28T01:28:58.087Z,7.14
2023-03-28T01:31:17.751Z,3.37
2023-03-28T01:32:21.342Z,4.43
2023-03-28T01:33:27.913Z,5.14
2023-03-28T01:34:31.207Z,3.75
2023-03-28T01:35:34.706Z,2.00
2023-03-28T01:36:38.071Z,1.00
2023-03-28T01:37:41.347Z,1.43
2023-03-28T01:38:44.631Z,2.00
2023-03-28T01:39:48.426Z,2.00
2023-03-28T01:40:51.719Z,2.29
2023-03-28T01:41:55.137Z,2.14
2023-03-28T01:42:58.283Z,3.00
2023-03-28T01:44:01.488Z,2.83
2023-03-28T01:45:04.863Z,3.00
2023-03-28T01:46:07.966Z,3.00
2023-03-28T01:47:11.208Z,2.57
2023-03-28T01:48:14.459Z,2.43
2023-03-28T01:49:17.675Z,1.57
2023-03-28T01:50:20.855Z,3.00
2023-03-28T01:51:23.908Z,2.00
2023-03-28T01:52:27.357Z,2.00
2023-03-28T01:53:30.398Z,2.29
2023-03-28T01:54:33.582Z,1.86
2023-03-28T01:55:42.321Z,2.00
2023-03-28T01:56:41.035Z,2.62
2023-03-28T01:57:44.309Z,2.50
2023-03-28T01:58:47.544Z,2.33
2023-03-28T01:59:50.623Z,5.33
2023-03-28T02:00:53.846Z,8.00
2023-03-28T02:01:57.116Z,3.29
2023-03-28T02:03:00.410Z,1.43
2023-03-28T02:04:03.661Z,2.00
2023-03-28T02:05:06.835Z,1.86
2023-03-28T02:06:10.117Z,3.71
2023-03-28T02:07:13.200Z,7.86
2023-03-28T02:08:16.386Z,4.57
2023-03-28T02:09:19.669Z,2.29
2023-03-28T02:10:22.846Z,2.86
2023-03-28T02:11:26.117Z,3.57
2023-03-28T02:12:29.401Z,2.57
2023-03-28T02:13:32.821Z,1.00
2023-03-28T02:14:35.894Z,1.00
2023-03-28T02:15:38.967Z,0.43
2023-03-28T02:16:42.235Z,2.33
2023-03-28T02:17:45.670Z,2.00
2023-03-28T02:18:48.922Z,1.57
2023-03-28T02:19:51.993Z,2.00
2023-03-28T02:20:55.291Z,2.00
2023-03-28T02:21:58.675Z,1.86
2023-03-28T02:23:02.166Z,1.00
2023-03-28T02:24:05.261Z,1.43
2023-03-28T02:25:08.835Z,1.86
2023-03-28T02:26:11.916Z,1.00
2023-03-28T02:27:15.102Z,1.00
2023-03-28T02:28:18.279Z,1.14
2023-03-28T02:29:21.771Z,2.00
2023-03-28T02:30:25.160Z,1.12
2023-03-28T02:31:28.370Z,1.86
2023-03-28T02:32:31.570Z,2.57
2023-03-28T02:33:34.605Z,2.43
2023-03-28T02:34:38.086Z,2.57
2023-03-28T02:35:41.619Z,2.00
2023-03-28T02:36:44.861Z,2.50
2023-03-28T02:37:47.939Z,2.00
2023-03-28T02:38:51.535Z,2.00
2023-03-28T02:39:58.028Z,4.71
2023-03-28T02:41:01.294Z,7.75
2023-03-28T02:42:04.439Z,5.43
2023-03-28T02:43:07.848Z,3.17
2023-03-28T02:44:11.232Z,2.00
2023-03-28T02:45:14.312Z,2.43
2023-03-28T02:46:17.696Z,3.00
2023-03-28T02:47:21.184Z,2.00
2023-03-28T02:48:24.371Z,2.14
2023-03-28T02:49:27.992Z,1.00
2023-03-28T02:50:31.956Z,2.00
2023-03-28T02:51:35.139Z,1.71
2023-03-28T02:52:38.213Z,2.00
2023-03-28T02:53:41.407Z,1.57
2023-03-28T02:54:44.575Z,2.29
2023-03-28T02:55:50.535Z,3.43
2023-03-28T02:56:53.697Z,3.50
2023-03-28T02:57:56.795Z,3.00
2023-03-28T02:58:59.981Z,3.43
2023-03-28T03:00:03.775Z,3.57
2023-03-28T03:01:07.310Z,3.43
2023-03-28T03:02:10.754Z,3.57
2023-03-28T03:03:13.974Z,3.00
2023-03-28T03:04:17.118Z,3.86
2023-03-28T03:05:20.403Z,5.00
2023-03-28T03:06:24.692Z,3.33
2023-03-28T03:07:27.794Z,2.50
2023-03-28T03:08:30.967Z,3.67
2023-03-28T03:09:35.279Z,3.17
2023-03-28T03:10:38.469Z,3.50
2023-03-28T03:11:41.650Z,3.14
2023-03-28T03:12:44.930Z,4.43
2023-03-28T03:13:48.214Z,4.29
2023-03-28T03:14:51.494Z,3.43
2023-03-28T03:15:54.868Z,3.86
2023-03-28T03:16:58.078Z,3.71
2023-03-28T03:18:01.285Z,3.67
2023-03-28T03:19:04.630Z,2.33
2023-03-28T03:20:07.917Z,2.57
2023-03-28T03:21:11.105Z,2.00
2023-03-28T03:22:20.598Z,2.43
2023-03-28T03:23:18.584Z,2.50
2023-03-28T03:24:21.877Z,2.00
2023-03-28T03:25:25.060Z,2.43
2023-03-28T03:26:28.232Z,3.17
2023-03-28T03:27:31.415Z,2.86
2023-03-28T03:28:34.596Z,2.43
2023-03-28T03:29:39.122Z,2.33
2023-03-28T03:30:41.878Z,3.12
2023-03-28T03:31:45.162Z,3.67
2023-03-28T03:32:49.404Z,3.43
2023-03-28T03:33:52.452Z,3.87
2023-03-28T03:34:55.634Z,5.43
2023-03-28T03:35:58.882Z,8.86
2023-03-28T03:37:02.430Z,6.00
2023-03-28T03:38:05.488Z,3.33
2023-03-28T03:39:08.564Z,3.00
2023-03-28T03:40:11.750Z,3.00
2023-03-28T03:41:14.924Z,3.57
2023-03-28T03:42:17.988Z,3.00
2023-03-28T03:43:21.086Z,2.71
2023-03-28T03:44:24.268Z,2.43
2023-03-28T03:45:27.452Z,2.57
2023-03-28T03:46:30.904Z,3.29
2023-03-28T03:47:34.150Z,2.14
2023-03-28T03:48:37.300Z,3.29
2023-03-28T03:49:40.482Z,3.86
2023-03-28T03:50:43.676Z,3.14
2023-03-28T03:51:46.782Z,6.50
2023-03-28T03:52:49.824Z,12.71
2023-03-28T03:53:52.909Z,8.50
2023-03-28T03:54:55.985Z,4.83
2023-03-28T03:55:59.268Z,3.83
2023-03-28T03:57:02.704Z,3.00
2023-03-28T03:58:05.938Z,2.86
2023-03-28T03:59:09.058Z,5.14
2023-03-28T04:00:12.192Z,8.33
2023-03-28T04:01:15.480Z,10.50
2023-03-28T04:02:18.796Z,7.71
2023-03-28T04:03:25.077Z,4.86
2023-03-28T04:04:26.332Z,5.50
2023-03-28T04:05:29.646Z,5.86
2023-03-28T04:06:32.934Z,7.17
2023-03-28T04:07:37.949Z,6.71
2023-03-28T04:08:41.235Z,6.00
2023-03-28T04:09:44.681Z,5.17
2023-03-28T04:10:47.821Z,6.14
2023-03-28T04:11:50.985Z,4.00
2023-03-28T04:12:54.093Z,3.00
2023-03-28T04:13:57.147Z,3.43
2023-03-28T04:15:00.632Z,3.43
2023-03-28T04:16:04.214Z,4.14
2023-03-28T04:17:07.728Z,8.14
2023-03-28T04:18:21.242Z,13.57
2023-03-28T04:19:24.582Z,19.75
2023-03-28T04:20:27.944Z,19.00
2023-03-28T04:21:31.348Z,9.57
2023-03-28T04:22:34.788Z,4.00
2023-03-28T04:23:38.170Z,3.57
2023-03-28T04:24:41.461Z,3.00
2023-03-28T04:25:44.755Z,3.17
2023-03-28T04:26:48.132Z,4.57
2023-03-28T04:27:51.413Z,3.43
2023-03-28T04:28:54.803Z,7.57
2023-03-28T04:29:58.091Z,15.00
2023-03-28T04:31:01.953Z,11.25
2023-03-28T04:32:05.277Z,9.00
2023-03-28T04:33:08.582Z,8.71
2023-03-28T04:34:11.947Z,11.14
2023-03-28T04:35:15.328Z,14.00
2023-03-28T04:36:18.744Z,6.29
2023-03-28T04:37:22.104Z,2.86
2023-03-28T04:38:25.591Z,3.57
2023-03-28T04:39:28.978Z,3.43
2023-03-28T04:40:32.463Z,2.57
2023-03-28T04:41:35.874Z,3.43
2023-03-28T04:42:39.258Z,3.57
2023-03-28T04:43:42.528Z,4.67
2023-03-28T04:44:45.803Z,7.14
2023-03-28T04:45:49.119Z,6.43
2023-03-28T04:46:53.402Z,5.86
2023-03-28T04:49:13.046Z,3.75
2023-03-28T04:50:16.259Z,3.33
2023-03-28T04:51:19.444Z,4.00
2023-03-28T04:52:22.728Z,3.00
2023-03-28T04:54:41.996Z,3.25
2023-03-28T04:55:45.172Z,3.67
2023-03-28T04:56:48.436Z,3.33
2023-03-28T04:57:51.522Z,3.57
2023-03-28T04:58:54.824Z,4.00
2023-03-28T04:59:57.935Z,4.17
2023-03-28T05:01:01.326Z,3.67
2023-03-28T05:02:04.470Z,3.86
2023-03-28T05:03:07.759Z,4.50
2023-03-28T05:04:10.944Z,3.43
2023-03-28T05:05:14.009Z,12.83
2023-03-28T05:06:17.087Z,23.00
2023-03-28T05:07:20.357Z,10.67
2023-03-28T05:08:23.454Z,4.71
2023-03-28T05:09:26.940Z,3.00
2023-03-28T05:12:51.434Z,3.12
2023-03-28T05:13:54.929Z,3.87
2023-03-28T05:14:58.316Z,3.57
2023-03-28T05:16:01.835Z,3.43
2023-03-28T05:18:13.195Z,4.00
2023-03-28T05:19:19.128Z,3.43
2023-03-28T05:20:22.623Z,4.00
2023-03-28T05:21:29.082Z,3.87
2023-03-28T05:22:32.138Z,3.50
2023-03-28T05:23:36.462Z,3.57
2023-03-28T05:24:39.546Z,3.67
2023-03-28T05:25:42.826Z,3.00
2023-03-28T05:26:46.212Z,3.00
2023-03-28T05:29:06.100Z,2.00
2023-03-28T05:30:09.391Z,3.00
2023-03-28T05:31:12.557Z,3.29
2023-03-28T05:32:15.863Z,4.00
2023-03-28T05:33:19.140Z,3.14
2023-03-28T05:34:22.726Z,2.43
2023-03-28T05:36:42.819Z,4.00
2023-03-28T05:37:47.014Z,3.57
2023-03-28T05:38:50.258Z,3.00
2023-03-28T05:39:56.043Z,3.67
2023-03-28T05:40:59.481Z,3.00
2023-03-28T05:42:02.918Z,2.57
2023-03-28T05:43:06.404Z,2.86
2023-03-28T05:44:09.790Z,3.00
2023-03-28T05:46:29.912Z,3.00
2023-03-28T05:47:33.480Z,3.86
2023-03-28T05:48:36.611Z,3.57
2023-03-28T05:49:39.315Z,3.43
2023-03-28T05:50:42.374Z,4.00
2023-03-28T05:51:45.482Z,4.00
2023-03-28T05:54:06.482Z,3.25
2023-03-28T05:55:09.769Z,3.50
2023-03-28T05:56:12.874Z,3.43
2023-03-28T05:57:16.176Z,3.67
2023-03-28T05:58:19.548Z,2.86
2023-03-28T05:59:23.017Z,3.57
2023-03-28T06:00:26.396Z,2.86
2023-03-28T06:01:29.784Z,3.00
2023-03-28T06:02:33.104Z,2.43
2023-03-28T06:03:37.598Z,2.57
2023-03-28T06:04:41.103Z,2.00
2023-03-28T06:06:54.439Z,2.00
2023-03-28T06:09:13.965Z,2.00
2023-03-28T06:10:17.398Z,1.86
2023-03-28T06:12:28.632Z,2.50
2023-03-28T06:13:31.621Z,2.33
2023-03-28T06:14:35.004Z,1.00
2023-03-28T06:15:38.053Z,1.43
2023-03-28T06:16:41.498Z,2.00
2023-03-28T06:17:44.890Z,2.00
2023-03-28T06:18:48.130Z,2.29
2023-03-28T06:19:51.633Z,2.00
2023-03-28T06:20:55.111Z,2.00
2023-03-28T06:21:58.405Z,1.86
2023-03-28T06:23:01.585Z,1.57
2023-03-28T06:24:04.960Z,1.57
2023-03-28T06:25:10.011Z,1.00
2023-03-28T06:26:12.663Z,1.50
2023-03-28T06:27:15.951Z,1.00
2023-03-28T06:28:19.337Z,1.00
2023-03-28T06:29:22.719Z,1.00
2023-03-28T06:30:25.919Z,2.00
2023-03-28T06:31:34.859Z,2.00
2023-03-28T06:32:43.254Z,2.00
2023-03-28T06:33:46.406Z,1.00
2023-03-28T06:34:49.482Z,1.57
2023-03-28T06:35:52.457Z,2.67
2023-03-28T06:36:55.642Z,2.00
2023-03-28T06:37:58.845Z,2.00
2023-03-28T06:39:01.943Z,1.57
2023-03-28T06:40:05.196Z,1.43
2023-03-28T06:41:08.427Z,1.57
2023-03-28T06:42:11.548Z,2.00
2023-03-28T06:43:14.787Z,1.86
2023-03-28T06:44:17.921Z,1.57
2023-03-28T06:45:20.994Z,1.00
2023-03-28T06:46:25.511Z,1.33
2023-03-28T06:47:28.633Z,1.50
2023-03-28T06:48:33.080Z,2.00
2023-03-28T06:49:36.286Z,2.00
2023-03-28T06:50:40.984Z,2.00
2023-03-28T06:51:44.181Z,2.00
2023-03-28T06:52:47.262Z,1.57
2023-03-28T06:53:50.455Z,1.43
2023-03-28T06:54:53.622Z,2.00
2023-03-28T06:55:56.593Z,1.67
2023-03-28T06:56:59.616Z,1.33
2023-03-28T06:58:02.762Z,2.00
2023-03-28T06:59:05.939Z,2.00
2023-03-28T07:00:09.019Z,2.00
2023-03-28T07:01:12.201Z,1.67
2023-03-28T07:02:15.434Z,1.33
2023-03-28T07:03:20.126Z,1.67
2023-03-28T07:04:22.668Z,1.43
2023-03-28T07:05:25.753Z,1.17
2023-03-28T07:06:31.195Z,1.43
2023-03-28T07:07:34.172Z,1.50
2023-03-28T07:08:37.350Z,1.33
2023-03-28T07:09:40.409Z,1.67
2023-03-28T07:10:43.637Z,1.00
2023-03-28T07:11:46.787Z,1.00
2023-03-28T07:12:49.973Z,1.00
2023-03-28T07:13:53.451Z,1.43
2023-03-28T07:14:56.639Z,1.00
2023-03-28T07:15:59.834Z,0.71
2023-03-28T07:17:03.093Z,1.43
2023-03-28T07:18:06.416Z,1.57
2023-03-28T07:19:09.366Z,0.71
2023-03-28T07:20:12.457Z,0.43
2023-03-28T07:21:15.733Z,1.00
2023-03-28T07:22:18.696Z,1.00
2023-03-28T07:23:25.988Z,1.00
2023-03-28T07:24:29.235Z,1.00
2023-03-28T07:25:32.459Z,0.71
2023-03-28T07:26:35.862Z,1.00
2023-03-28T07:27:39.127Z,1.43
2023-03-28T07:28:45.408Z,1.83
2023-03-28T07:29:48.257Z,1.00
2023-03-28T07:30:51.750Z,1.00
2023-03-28T07:31:55.239Z,0.86
2023-03-28T07:33:11.556Z,1.43
2023-03-28T07:34:02.862Z,1.50
2023-03-28T07:35:06.096Z,1.00
2023-03-28T07:36:10.887Z,1.00
2023-03-28T07:37:15.119Z,1.00
2023-03-28T07:38:18.421Z,1.83
2023-03-28T07:39:22.025Z,2.00
2023-03-28T07:40:25.396Z,2.00
2023-03-28T07:41:28.889Z,2.43
2023-03-28T07:42:32.474Z,3.00
2023-03-28T07:43:40.686Z,1.75
2023-03-28T07:44:43.968Z,1.50
2023-03-28T07:45:47.309Z,1.67
2023-03-28T07:46:50.639Z,1.00
2023-03-28T07:47:54.161Z,2.00
2023-03-28T07:48:57.855Z,2.00
2023-03-28T07:50:01.410Z,2.00
2023-03-28T07:51:04.793Z,1.57
2023-03-28T07:52:11.778Z,1.00
2023-03-28T07:53:15.150Z,1.50
2023-03-28T07:54:18.491Z,1.57
2023-03-28T07:55:26.552Z,1.50
2023-03-28T07:56:29.384Z,1.00
2023-03-28T07:57:32.892Z,1.43
2023-03-28T07:58:41.293Z,1.43
2023-03-28T07:59:44.491Z,1.25
2023-03-28T08:00:47.756Z,0.71
2023-03-28T08:01:51.261Z,1.00
2023-03-28T08:02:54.637Z,1.00
2023-03-28T08:03:57.933Z,1.43
2023-03-28T08:05:01.341Z,1.57
2023-03-28T08:06:06.429Z,1.43
2023-03-28T08:07:09.121Z,1.87
2023-03-28T08:08:12.416Z,1.67
2023-03-28T08:09:15.672Z,1.33
2023-03-28T08:10:19.269Z,1.57
2023-03-28T08:11:22.656Z,1.00
2023-03-28T08:12:27.937Z,2.00
2023-03-28T08:13:34.341Z,1.50
2023-03-28T08:14:37.636Z,1.87
2023-03-28T08:15:41.033Z,3.00
2023-03-28T08:16:44.513Z,2.57
2023-03-28T08:17:47.923Z,2.00
2023-03-28T08:18:59.928Z,2.00
2023-03-28T08:19:55.382Z,2.00
2023-03-28T08:20:58.881Z,2.43
2023-03-28T08:22:02.356Z,3.00
2023-03-28T08:23:05.640Z,2.00
2023-03-28T08:24:09.134Z,1.57
2023-03-28T08:25:12.520Z,2.43
2023-03-28T08:26:15.985Z,2.14
2023-03-28T08:27:19.317Z,1.43
2023-03-28T08:28:22.580Z,2.00
2023-03-28T08:29:25.657Z,2.00
2023-03-28T08:30:34.554Z,2.00
2023-03-28T08:31:37.582Z,1.50
2023-03-28T08:32:40.585Z,1.00
2023-03-28T08:33:43.599Z,1.33
2023-03-28T08:34:46.683Z,1.67
2023-03-28T08:35:50.104Z,1.14
2023-03-28T08:36:54.414Z,1.57
2023-03-28T08:37:57.353Z,1.00
2023-03-28T08:39:00.896Z,1.00
2023-03-28T08:40:04.276Z,1.00
2023-03-28T08:41:07.621Z,1.00
2023-03-28T08:42:10.905Z,1.00
2023-03-28T08:43:14.394Z,1.00
2023-03-28T08:44:17.680Z,1.00
2023-03-28T08:45:21.173Z,1.00
2023-03-28T08:46:26.114Z,1.00
2023-03-28T08:47:29.125Z,1.00
2023-03-28T08:48:32.452Z,1.00
2023-03-28T08:49:44.754Z,1.00
2023-03-28T08:50:48.350Z,1.00
2023-03-28T08:51:51.711Z,1.57
2023-03-28T08:52:55.009Z,1.00
2023-03-28T08:53:58.308Z,0.57
2023-03-28T08:55:02.920Z,0.50
2023-03-28T08:56:06.707Z,1.00
2023-03-28T08:57:10.020Z,1.00
2023-03-28T08:58:13.375Z,0.57
2023-03-28T08:59:16.768Z,0.43
2023-03-28T09:00:20.301Z,1.14
2023-03-28T09:01:25.235Z,1.14
2023-03-28T09:02:30.027Z,0.75
2023-03-28T09:05:12.009Z,1.00
2023-03-28T09:06:05.478Z,1.00
2023-03-28T09:07:08.431Z,1.00
2023-03-28T09:08:11.732Z,1.00
2023-03-28T09:09:15.108Z,1.43
2023-03-28T09:10:18.590Z,1.00
2023-03-28T09:11:21.868Z,1.00
2023-03-28T09:12:26.429Z,1.00
2023-03-28T09:13:31.497Z,0.57
2023-03-28T09:14:34.934Z,0.50
2023-03-28T09:15:38.078Z,1.00
2023-03-28T09:16:41.417Z,0.67
2023-03-28T09:17:47.003Z,0.33
2023-03-28T09:18:49.865Z,1.00
2023-03-28T09:19:53.261Z,1.00
2023-03-28T09:20:56.542Z,0.57
2023-03-28T09:22:08.898Z,0.71
2023-03-28T09:23:04.244Z,0.25
2023-03-28T09:24:07.876Z,0.71
2023-03-28T09:25:13.396Z,1.00
2023-03-28T09:26:16.659Z,1.00
2023-03-28T09:27:20.150Z,1.14
2023-03-28T09:28:23.432Z,1.00
2023-03-28T09:29:27.964Z,1.00
2023-03-28T09:30:31.158Z,1.00
2023-03-28T09:31:36.307Z,1.00
2023-03-28T09:32:39.808Z,1.12
2023-03-28T09:33:44.950Z,1.57
2023-03-28T09:34:48.050Z,1.00
2023-03-28T09:35:51.167Z,1.00
2023-03-28T09:36:59.897Z,1.43
2023-03-28T09:38:03.229Z,2.00
2023-03-28T09:39:06.419Z,1.71
2023-03-28T09:40:15.426Z,1.67
2023-03-28T09:41:20.294Z,1.00
2023-03-28T09:42:23.227Z,0.88
2023-03-28T09:43:26.378Z,1.00
2023-03-28T09:44:29.385Z,1.00
2023-03-28T09:45:32.817Z,1.00
2023-03-28T09:46:38.949Z,1.00
2023-03-28T09:47:42.364Z,1.50
2023-03-28T09:48:45.804Z,1.57
2023-03-28T09:49:52.379Z,1.29
2023-03-28T09:50:55.826Z,1.00
2023-03-28T09:51:59.023Z,0.88
2023-03-28T09:53:02.517Z,1.00
2023-03-28T09:54:05.728Z,1.00
2023-03-28T09:55:09.084Z,0.57
2023-03-28T09:56:12.384Z,0.29
2023-03-28T09:57:15.814Z,0.00
2023-03-28T09:58:19.147Z,0.43
2023-03-28T09:59:29.160Z,1.00
2023-03-28T10:00:35.398Z,0.50
2023-03-28T10:01:38.685Z,0.50
2023-03-28T10:02:43.526Z,0.57
2023-03-28T10:05:07.059Z,0.13
2023-03-28T10:06:11.705Z,1.00
2023-03-28T10:07:14.295Z,1.00
2023-03-28T10:08:17.374Z,1.00
2023-03-28T10:09:25.669Z,1.67
2023-03-28T10:10:28.659Z,0.88
2023-03-28T10:11:31.939Z,0.43
2023-03-28T10:12:35.015Z,0.57
2023-03-28T10:13:43.414Z,0.43
2023-03-28T10:14:46.499Z,1.00
2023-03-28T10:15:50.020Z,1.00
2023-03-28T10:16:53.377Z,1.00
2023-03-28T10:17:56.595Z,1.00
2023-03-28T10:18:59.741Z,0.57
2023-03-28T10:20:02.820Z,1.00
2023-03-28T10:21:06.113Z,1.57
2023-03-28T10:22:09.185Z,0.57
2023-03-28T10:23:12.366Z,0.43
2023-03-28T10:24:15.418Z,1.00
2023-03-28T10:25:20.723Z,1.00
2023-03-28T10:26:23.968Z,1.00
2023-03-28T10:27:26.971Z,1.43
2023-03-28T10:28:29.811Z,1.33
2023-03-28T10:29:33.093Z,0.33
2023-03-28T10:30:37.250Z,1.00
2023-03-28T10:31:40.382Z,1.00
2023-03-28T10:32:44.561Z,1.00
2023-03-28T10:33:47.678Z,1.00
2023-03-28T10:34:50.949Z,1.00
2023-03-28T10:35:54.065Z,1.00
2023-03-28T10:36:57.213Z,1.29
2023-03-28T10:38:00.279Z,1.43
2023-03-28T10:39:03.258Z,1.50
2023-03-28T10:40:06.410Z,2.00
2023-03-28T10:41:09.528Z,1.57
2023-03-28T10:42:12.520Z,1.00
2023-03-28T10:43:15.503Z,1.43
2023-03-28T10:44:21.944Z,2.00
2023-03-28T10:45:25.126Z,2.25
2023-03-28T10:46:28.368Z,2.00
2023-03-28T10:47:31.492Z,2.00
2023-03-28T10:48:34.582Z,2.00
2023-03-28T10:49:38.777Z,1.87
2023-03-28T10:50:41.958Z,1.57
2023-03-28T10:51:45.037Z,2.00
2023-03-28T10:52:48.012Z,1.67
2023-03-28T10:53:51.199Z,1.83
2023-03-28T10:54:54.385Z,2.00
2023-03-28T10:55:59.517Z,1.57
2023-03-28T10:57:03.531Z,2.00
2023-03-28T10:58:06.482Z,1.50
2023-03-28T10:59:09.581Z,1.43
2023-03-28T11:00:12.754Z,2.00
2023-03-28T11:01:15.819Z,2.14
2023-03-28T11:02:18.970Z,1.67
2023-03-28T11:03:22.013Z,1.00
2023-03-28T11:04:26.680Z,1.00
2023-03-28T11:05:29.233Z,2.12
2023-03-28T11:06:32.342Z,3.00
2023-03-28T11:07:35.536Z,1.00
2023-03-28T11:08:38.711Z,1.00
2023-03-28T11:09:41.788Z,1.57
2023-03-28T11:10:44.863Z,1.14
2023-03-28T11:11:47.858Z,0.67
2023-03-28T11:12:54.995Z,0.33
2023-03-28T11:13:55.137Z,1.50
2023-03-28T11:14:58.310Z,1.71
2023-03-28T11:16:01.344Z,1.14
2023-03-28T11:17:04.472Z,1.00
2023-03-28T11:18:07.464Z,1.00
2023-03-28T11:19:10.628Z,1.43
2023-03-28T11:20:13.738Z,1.33
2023-03-28T11:21:18.399Z,1.00
2023-03-28T11:22:21.092Z,1.00
2023-03-28T11:23:24.073Z,1.00
2023-03-28T11:24:27.237Z,1.00
2023-03-28T11:25:30.217Z,1.29
2023-03-28T11:26:33.205Z,1.00
2023-03-28T11:27:36.285Z,1.00
2023-03-28T11:28:39.366Z,1.00
2023-03-28T11:29:44.407Z,1.29
2023-03-28T11:30:47.543Z,1.00
2023-03-28T11:31:50.671Z,1.00
2023-03-28T11:32:55.237Z,1.00
2023-03-28T11:34:03.700Z,1.50
2023-03-28T11:35:06.954Z,1.50
2023-03-28T11:36:10.481Z,1.43
2023-03-28T11:37:13.836Z,1.57
2023-03-28T11:38:23.532Z,1.00
2023-03-28T11:39:26.912Z,0.50
2023-03-28T11:40:30.242Z,0.50
2023-03-28T11:41:33.324Z,1.00
2023-03-28T11:42:36.612Z,1.00
2023-03-28T11:43:39.913Z,1.00
2023-03-28T11:44:44.232Z,1.00
2023-03-28T11:45:52.049Z,1.00
2023-03-28T11:46:51.564Z,1.00
2023-03-28T11:47:54.760Z,1.43
2023-03-28T11:48:57.858Z,1.57
2023-03-28T11:50:01.244Z,1.00
2023-03-28T11:51:04.124Z,1.00
2023-03-28T11:52:12.745Z,1.00
2023-03-28T11:53:15.689Z,1.00
2023-03-28T11:54:24.762Z,1.00
2023-03-28T11:55:27.795Z,1.50
2023-03-28T11:56:31.171Z,1.00
2023-03-28T11:57:34.356Z,1.00
2023-03-28T11:58:37.641Z,1.00
2023-03-28T11:59:40.828Z,1.00
2023-03-28T12:00:44.046Z,1.43
2023-03-28T12:01:47.395Z,1.57
2023-03-28T12:02:50.616Z,1.00
2023-03-28T12:03:53.856Z,1.00
2023-03-28T12:04:56.930Z,0.86
2023-03-28T12:06:04.481Z,0.43
2023-03-28T12:07:04.454Z,1.00
2023-03-28T12:08:07.504Z,1.00
2023-03-28T12:09:10.480Z,1.00
2023-03-28T12:10:15.027Z,1.33
2023-03-28T12:11:18.174Z,1.50
2023-03-28T12:12:21.539Z,1.00
2023-03-28T12:13:24.845Z,1.00
2023-03-28T12:14:28.039Z,1.43
2023-03-28T12:15:30.962Z,1.57
2023-03-28T12:16:34.256Z,1.00
2023-03-28T12:17:37.522Z,1.33
2023-03-28T12:18:40.553Z,1.33
2023-03-28T12:19:45.201Z,1.67
2023-03-28T12:20:50.618Z,1.00
2023-03-28T12:21:53.885Z,1.00
2023-03-28T12:22:56.759Z,1.00
2023-03-28T12:23:59.875Z,1.00
2023-03-28T12:25:02.927Z,1.00
2023-03-28T12:26:06.101Z,1.00
2023-03-28T12:27:10.508Z,1.00
2023-03-28T12:28:13.589Z,1.00
2023-03-28T12:29:16.772Z,1.43
2023-03-28T12:30:19.874Z,1.57
2023-03-28T12:31:22.969Z,1.00
2023-03-28T12:32:26.366Z,1.00
2023-03-28T12:33:29.514Z,1.00
2023-03-28T12:34:32.575Z,1.00
2023-03-28T12:35:35.596Z,1.00
2023-03-28T12:36:38.842Z,1.00
2023-03-28T12:37:41.927Z,1.00
2023-03-28T12:38:48.789Z,1.00
2023-03-28T12:39:51.980Z,1.12
2023-03-28T12:40:55.051Z,1.57
2023-03-28T12:41:59.892Z,1.00
2023-03-28T12:43:02.950Z,1.00
2023-03-28T12:44:06.231Z,1.00
2023-03-28T12:45:09.427Z,1.00
2023-03-28T12:46:12.525Z,1.43
2023-03-28T12:47:15.677Z,1.14
2023-03-28T12:48:18.854Z,1.43
2023-03-28T12:49:22.048Z,1.57
2023-03-28T12:50:25.414Z,1.43
2023-03-28T12:51:28.814Z,1.57
2023-03-28T12:52:32.102Z,1.43
2023-03-28T12:53:35.094Z,1.57
2023-03-28T12:54:38.256Z,1.00
2023-03-28T12:55:41.539Z,1.00
2023-03-28T12:56:44.623Z,1.00
2023-03-28T12:57:47.727Z,1.00
2023-03-28T12:58:50.880Z,1.00
2023-03-28T12:59:53.960Z,1.00
2023-03-28T13:00:57.160Z,1.43
2023-03-28T13:02:00.504Z,1.57
2023-03-28T13:03:03.656Z,1.43
2023-03-28T13:04:06.715Z,1.57
2023-03-28T13:05:09.761Z,1.00
2023-03-28T13:06:12.912Z,1.33
2023-03-28T13:07:18.226Z,1.67
2023-03-28T13:08:26.084Z,1.00
2023-03-28T13:09:29.161Z,1.12
2023-03-28T13:10:32.232Z,2.00
2023-03-28T13:11:35.236Z,1.57
2023-03-28T13:12:38.395Z,1.43
2023-03-28T13:13:41.470Z,2.00
2023-03-28T13:14:44.565Z,2.33
2023-03-28T13:15:47.851Z,1.57
2023-03-28T13:16:51.021Z,1.43
2023-03-28T13:17:54.082Z,1.57
2023-03-28T13:18:57.180Z,1.00
2023-03-28T13:20:00.162Z,1.00
2023-03-28T13:21:03.229Z,1.33
2023-03-28T13:22:06.289Z,2.00
2023-03-28T13:23:09.396Z,2.00
2023-03-28T13:24:12.468Z,2.00
2023-03-28T13:25:15.653Z,1.57
2023-03-28T13:26:18.844Z,1.00
2023-03-28T13:27:21.918Z,1.67
2023-03-28T13:28:24.994Z,2.00
2023-03-28T13:29:27.973Z,2.00
2023-03-28T13:30:31.220Z,1.57
2023-03-28T13:31:34.459Z,1.00
2023-03-28T13:32:37.762Z,1.43
2023-03-28T13:33:42.272Z,2.00
2023-03-28T13:34:45.322Z,1.50
2023-03-28T13:35:48.377Z,1.00
2023-03-28T13:36:51.473Z,2.00
2023-03-28T13:37:54.468Z,1.43
2023-03-28T13:38:57.447Z,1.00
2023-03-28T13:40:00.308Z,2.29
2023-03-28T13:41:03.779Z,1.86
2023-03-28T13:42:06.875Z,1.43
2023-03-28T13:43:09.947Z,2.00
2023-03-28T13:44:13.130Z,1.86
2023-03-28T13:45:16.111Z,2.00
2023-03-28T13:46:19.221Z,2.00
2023-03-28T13:47:22.562Z,2.00
2023-03-28T13:48:25.681Z,1.71
2023-03-28T13:49:28.940Z,1.57
2023-03-28T13:50:32.019Z,1.86
2023-03-28T13:51:35.400Z,2.00
2023-03-28T13:52:38.384Z,2.00
2023-03-28T13:53:47.436Z,2.43
2023-03-28T13:54:45.882Z,3.00
2023-03-28T13:55:48.946Z,2.57
2023-03-28T13:56:53.262Z,2.00
2023-03-28T13:57:56.542Z,2.43
2023-03-28T13:58:59.856Z,3.00
2023-03-28T14:00:03.050Z,2.57
2023-03-28T14:01:06.221Z,2.00
2023-03-28T14:02:09.414Z,2.00
2023-03-28T14:03:12.476Z,2.00
2023-03-28T14:04:15.734Z,2.00
2023-03-28T14:05:18.928Z,2.00
2023-03-28T14:06:22.107Z,2.33
2023-03-28T14:07:25.051Z,3.00
2023-03-28T14:08:28.256Z,2.71
2023-03-28T14:09:31.201Z,5.86
2023-03-28T14:10:35.556Z,10.71
2023-03-28T14:11:38.537Z,12.13
2023-03-28T14:12:41.610Z,11.33
2023-03-28T14:13:44.785Z,5.00
2023-03-28T14:14:47.861Z,5.67
2023-03-28T14:15:51.044Z,6.57
2023-03-28T14:16:54.210Z,5.86
2023-03-28T14:17:57.330Z,4.71
2023-03-28T14:19:00.393Z,2.57
2023-03-28T14:20:03.646Z,2.33
2023-03-28T14:21:06.956Z,2.67
2023-03-28T14:22:10.044Z,3.29
2023-03-28T14:23:13.214Z,3.67
2023-03-28T14:24:16.196Z,2.67
2023-03-28T14:25:19.374Z,3.86